^^
Saratoga-Weather Station Historical Data
Daily Summary for April 22, 2020 Units:  Metric    English   Both
Daily Weekly Monthly Yearly Custom
  High: Low: Average:
Temperature: 24.7 °C 18.6 °C 21.7 °C
Dew Point: 19.7 °C 11.7 °C 15 °C
Humidity: 89% 45% 67%
Wind Speed: 24.1km/h 0km/h 5.4km/h
Wind Gust: 29km/h - -
Wind- - West
Pressure: 1016.9 hPa 1012.5 hPa -
Precipitation: 0.0 mm    
Historical Graphs
 
 
Tabular Data for April 22, 2020
Time Temperature Dew Point Pressure Wind Wind Speed Wind Gust Humidity Rainfall Rate (Hourly) solar
00:00 22.5 °C 19.7 °C 1012.5 hPa NW 1.4 km/h 8 km/h 84% 0.0 mm 0 W/m2
00:05 22.4 °C 19.6 °C 1012.5 hPa NNW 1.4 km/h 6.4 km/h 84% 0.0 mm 0 W/m2
00:10 22.4 °C 19.6 °C 1012.5 hPa NW 4.7 km/h 9.7 km/h 84% 0.0 mm 0 W/m2
00:15 22.4 °C 19.6 °C 1012.5 hPa WSW 1.4 km/h 6.4 km/h 84% 0.0 mm 0 W/m2
00:21 22.3 °C 19.5 °C 1012.5 hPa East 3.2 km/h 9.7 km/h 84% 0.0 mm 0 W/m2
00:26 22.3 °C 19.5 °C 1012.5 hPa Calm   3.2 km/h 84% 0.0 mm 0 W/m2
00:31 22.3 °C 19.5 °C 1012.5 hPa Calm   3.2 km/h 84% 0.0 mm 0 W/m2
00:36 22.2 °C 19.6 °C 1012.9 hPa WNW 1.4 km/h 1.6 km/h 85% 0.0 mm 0 W/m2
00:41 22.2 °C 19.6 °C 1012.9 hPa Calm   3.2 km/h 85% 0.0 mm 0 W/m2
00:46 22.2 °C 19.6 °C 1012.9 hPa Calm   1.6 km/h 85% 0.0 mm 0 W/m2
00:51 22.1 °C 19.5 °C 1012.9 hPa NW 1.4 km/h 3.2 km/h 85% 0.0 mm 0 W/m2
00:56 22.1 °C 19.5 °C 1012.9 hPa SSE 1.4 km/h 3.2 km/h 85% 0.0 mm 0 W/m2
01:01 22.1 °C 19.5 °C 1012.9 hPa SSW 1.4 km/h 6.4 km/h 85% 0.0 mm 0 W/m2
01:06 22 °C 19.5 °C 1013.2 hPa Calm   1.6 km/h 86% 0.0 mm 0 W/m2
01:11 21.9 °C 19.5 °C 1012.9 hPa East 1.4 km/h 4.8 km/h 86% 0.0 mm 0 W/m2
01:16 21.9 °C 19.5 °C 1012.9 hPa SSE 4.7 km/h 4.8 km/h 86% 0.0 mm 0 W/m2
01:21 21.8 °C 19.4 °C 1013.2 hPa East 3.2 km/h 6.4 km/h 86% 0.0 mm 0 W/m2
01:26 21.8 °C 19.5 °C 1013.2 hPa SE 1.4 km/h 4.8 km/h 87% 0.0 mm 0 W/m2
01:31 21.7 °C 19.4 °C 1013.2 hPa Calm   4.8 km/h 87% 0.0 mm 0 W/m2
01:36 21.7 °C 19.4 °C 1013.2 hPa SSW 1.4 km/h 4.8 km/h 87% 0.0 mm 0 W/m2
01:41 21.6 °C 19.3 °C 1013.2 hPa Calm   6.4 km/h 87% 0.0 mm 0 W/m2
01:46 21.6 °C 19.3 °C 1013.2 hPa Calm   1.6 km/h 87% 0.0 mm 0 W/m2
01:51 21.6 °C 19.3 °C 1013.2 hPa North 1.4 km/h 6.4 km/h 87% 0.0 mm 0 W/m2
01:56 21.5 °C 19.2 °C 1013.2 hPa SSE 3.2 km/h 4.8 km/h 87% 0.0 mm 0 W/m2
02:01 21.4 °C 19.1 °C 1012.9 hPa Calm   4.8 km/h 87% 0.0 mm 0 W/m2
02:06 21.4 °C 19.1 °C 1013.2 hPa Calm   1.6 km/h 87% 0.0 mm 0 W/m2
02:11 21.3 °C 19 °C 1013.2 hPa SW 1.4 km/h 4.8 km/h 87% 0.0 mm 0 W/m2
02:16 21.3 °C 19.2 °C 1013.5 hPa East 1.4 km/h 6.4 km/h 88% 0.0 mm 0 W/m2
02:21 21.3 °C 19.2 °C 1013.5 hPa Calm   3.2 km/h 88% 0.0 mm 0 W/m2
02:26 21.2 °C 19.1 °C 1013.5 hPa Calm   3.2 km/h 88% 0.0 mm 0 W/m2
02:31 21.2 °C 19.1 °C 1013.5 hPa Calm   3.2 km/h 88% 0.0 mm 0 W/m2
02:36 21.2 °C 19.1 °C 1013.5 hPa East 6.4 km/h 9.7 km/h 88% 0.0 mm 0 W/m2
02:41 21.2 °C 19.1 °C 1013.5 hPa WNW 4.7 km/h 4.8 km/h 88% 0.0 mm 0 W/m2
02:46 21.1 °C 19 °C 1013.5 hPa NNW 4.7 km/h 9.7 km/h 88% 0.0 mm 0 W/m2
02:51 21.1 °C 19 °C 1013.5 hPa WSW 4.7 km/h 4.8 km/h 88% 0.0 mm 0 W/m2
02:56 21 °C 18.9 °C 1013.9 hPa NE 4.7 km/h 6.4 km/h 88% 0.0 mm 0 W/m2
03:01 20.9 °C 18.8 °C 1014.2 hPa NNE 3.2 km/h 6.4 km/h 88% 0.0 mm 0 W/m2
03:06 20.9 °C 18.8 °C 1013.9 hPa WNW 1.4 km/h 4.8 km/h 88% 0.0 mm 0 W/m2
03:11 20.8 °C 18.7 °C 1014.2 hPa NNE 4.7 km/h 4.8 km/h 88% 0.0 mm 0 W/m2
03:17 20.8 °C 18.7 °C 1014.2 hPa NW 4.7 km/h 6.4 km/h 88% 0.0 mm 0 W/m2
03:22 20.8 °C 18.7 °C 1013.9 hPa North 1.4 km/h 1.6 km/h 88% 0.0 mm 0 W/m2
03:27 20.8 °C 18.6 °C 1013.9 hPa Calm   6.4 km/h 87% 0.0 mm 0 W/m2
03:32 20.7 °C 18.5 °C 1013.9 hPa WNW 4.7 km/h 6.4 km/h 87% 0.0 mm 0 W/m2
03:37 20.7 °C 18.5 °C 1013.9 hPa WNW 4.7 km/h 4.8 km/h 87% 0.0 mm 0 W/m2
03:42 20.7 °C 18.5 °C 1013.9 hPa Calm   6.4 km/h 87% 0.0 mm 0 W/m2
03:47 20.7 °C 18.3 °C 1013.9 hPa WNW 3.2 km/h 3.2 km/h 86% 0.0 mm 0 W/m2
03:52 20.6 °C 18.2 °C 1014.2 hPa WNW 1.4 km/h 3.2 km/h 86% 0.0 mm 0 W/m2
03:57 20.6 °C 18.2 °C 1013.9 hPa NW 7.9 km/h 8 km/h 86% 0.0 mm 0 W/m2
04:02 20.5 °C 18.3 °C 1013.9 hPa East 3.2 km/h 3.2 km/h 87% 0.0 mm 0 W/m2
04:07 20.4 °C 18.2 °C 1014.2 hPa NNW 1.4 km/h 14.5 km/h 87% 0.0 mm 0 W/m2
04:12 20.4 °C 18 °C 1014.2 hPa WSW 3.2 km/h 4.8 km/h 86% 0.0 mm 0 W/m2
04:17 20.4 °C 18.2 °C 1014.2 hPa WNW 1.4 km/h 4.8 km/h 87% 0.0 mm 0 W/m2
04:22 20.3 °C 18.1 °C 1014.2 hPa South 1.4 km/h 6.4 km/h 87% 0.0 mm 0 W/m2
04:27 20.2 °C 18 °C 1014.2 hPa NNW 1.4 km/h 6.4 km/h 87% 0.0 mm 0 W/m2
04:32 20.1 °C 17.9 °C 1014.2 hPa SW 1.4 km/h 6.4 km/h 87% 0.0 mm 0 W/m2
04:37 20.1 °C 17.9 °C 1014.2 hPa Calm   3.2 km/h 87% 0.0 mm 0 W/m2
04:42 20 °C 18 °C 1014.2 hPa NE 3.2 km/h 3.2 km/h 88% 0.0 mm 0 W/m2
04:47 19.9 °C 17.9 °C 1014.2 hPa Calm   1.6 km/h 88% 0.0 mm 0 W/m2
04:52 19.9 °C 17.9 °C 1014.2 hPa Calm   4.8 km/h 88% 0.0 mm 0 W/m2
04:58 19.9 °C 17.9 °C 1014.2 hPa NW 4.7 km/h 4.8 km/h 88% 0.0 mm 0 W/m2
05:03 19.8 °C 17.8 °C 1014.2 hPa NW 4.7 km/h 4.8 km/h 88% 0.0 mm 0 W/m2
05:08 19.8 °C 17.8 °C 1014.2 hPa WNW 3.2 km/h 6.4 km/h 88% 0.0 mm 0 W/m2
05:13 19.8 °C 17.8 °C 1014.2 hPa NW 3.2 km/h 4.8 km/h 88% 0.0 mm 0 W/m2
05:18 19.8 °C 17.8 °C 1014.2 hPa NE 3.2 km/h 4.8 km/h 88% 0.0 mm 0 W/m2
05:23 19.7 °C 17.7 °C 1014.6 hPa Calm   6.4 km/h 88% 0.0 mm 0 W/m2
05:28 19.7 °C 17.7 °C 1014.6 hPa SE 1.4 km/h 4.8 km/h 88% 0.0 mm 0 W/m2
05:33 19.6 °C 17.6 °C 1014.6 hPa ESE 1.4 km/h 3.2 km/h 88% 0.0 mm 0 W/m2
05:38 19.6 °C 17.6 °C 1014.6 hPa Calm   3.2 km/h 88% 0.0 mm 0 W/m2
05:43 19.5 °C 17.6 °C 1014.6 hPa West 6.4 km/h 11.3 km/h 89% 0.0 mm 0 W/m2
05:48 19.4 °C 17.5 °C 1014.6 hPa WNW 3.2 km/h 6.4 km/h 89% 0.0 mm 0 W/m2
05:53 19.4 °C 17.5 °C 1014.9 hPa West 3.2 km/h 12.9 km/h 89% 0.0 mm 0 W/m2
05:58 19.4 °C 17.5 °C 1014.6 hPa NNW 1.4 km/h 6.4 km/h 89% 0.0 mm 0 W/m2
06:03 19.4 °C 17.5 °C 1014.9 hPa NW 11.1 km/h 12.9 km/h 89% 0.0 mm 0 W/m2
06:08 19.3 °C 17.4 °C 1014.9 hPa NW 1.4 km/h 6.4 km/h 89% 0.0 mm 0 W/m2
06:13 19.3 °C 17.4 °C 1014.9 hPa NW 3.2 km/h 4.8 km/h 89% 0.0 mm 0 W/m2
06:18 19.3 °C 17.4 °C 1014.6 hPa West 1.4 km/h 3.2 km/h 89% 0.0 mm 0 W/m2
06:23 19.3 °C 17.4 °C 1014.9 hPa West 3.2 km/h 3.2 km/h 89% 0.0 mm 0 W/m2
06:28 19.2 °C 17.3 °C 1014.9 hPa NW 3.2 km/h 3.2 km/h 89% 0.0 mm 0 W/m2
06:33 19.2 °C 17.2 °C 1014.9 hPa West 6.4 km/h 11.3 km/h 88% 0.0 mm 0 W/m2
06:38 19.2 °C 17.2 °C 1015.2 hPa West 4.7 km/h 6.4 km/h 88% 0.0 mm 0 W/m2
06:43 19.1 °C 17.1 °C 1015.2 hPa NW 4.7 km/h 11.3 km/h 88% 0.0 mm 0 W/m2
06:48 19.1 °C 17.1 °C 1015.2 hPa WNW 3.2 km/h 6.4 km/h 88% 0.0 mm 0 W/m2
06:53 19 °C 16.8 °C 1015.2 hPa West 1.4 km/h 6.4 km/h 87% 0.0 mm 5 W/m2
06:58 19 °C 16.8 °C 1015.2 hPa West 3.2 km/h 8 km/h 87% 0.0 mm 7 W/m2
07:04 18.9 °C 16.7 °C 1015.6 hPa West 3.2 km/h 9.7 km/h 87% 0.0 mm 11 W/m2
07:09 18.9 °C 16.5 °C 1015.6 hPa Calm   4.8 km/h 86% 0.0 mm 12 W/m2
07:14 18.9 °C 16.5 °C 1015.6 hPa WNW 1.4 km/h 9.7 km/h 86% 0.0 mm 19 W/m2
07:19 18.8 °C 16.4 °C 1015.9 hPa WNW 1.4 km/h 12.9 km/h 86% 0.0 mm 25 W/m2
07:24 18.8 °C 16.2 °C 1015.9 hPa Calm   1.6 km/h 85% 0.0 mm 28 W/m2
07:29 18.8 °C 16 °C 1015.9 hPa NW 4.7 km/h 12.9 km/h 84% 0.0 mm 33 W/m2
07:34 18.9 °C 15.9 °C 1015.9 hPa WSW 3.2 km/h 4.8 km/h 83% 0.0 mm 35 W/m2
07:39 18.9 °C 15.9 °C 1015.9 hPa WNW 3.2 km/h 12.9 km/h 83% 0.0 mm 47 W/m2
07:44 18.9 °C 15.9 °C 1015.9 hPa WNW 3.2 km/h 4.8 km/h 83% 0.0 mm 54 W/m2
07:49 18.9 °C 15.9 °C 1016.3 hPa West 4.7 km/h 4.8 km/h 83% 0.0 mm 49 W/m2
07:54 18.8 °C 15.7 °C 1016.3 hPa NW 1.4 km/h 6.4 km/h 82% 0.0 mm 56 W/m2
07:59 18.8 °C 15.7 °C 1016.3 hPa NW 11.1 km/h 11.3 km/h 82% 0.0 mm 56 W/m2
08:04 18.8 °C 15.3 °C 1016.3 hPa WNW 4.7 km/h 4.8 km/h 80% 0.0 mm 65 W/m2
08:09 18.8 °C 15.1 °C 1016.3 hPa West 3.2 km/h 6.4 km/h 79% 0.0 mm 79 W/m2
08:14 18.8 °C 15.1 °C 1016.3 hPa West 6.4 km/h 6.4 km/h 79% 0.0 mm 84 W/m2
08:19 18.8 °C 14.9 °C 1016.3 hPa WSW 4.7 km/h 6.4 km/h 78% 0.0 mm 86 W/m2
08:24 18.8 °C 14.9 °C 1016.3 hPa West 3.2 km/h 6.4 km/h 78% 0.0 mm 102 W/m2
08:29 18.8 °C 14.9 °C 1016.3 hPa WNW 4.7 km/h 11.3 km/h 78% 0.0 mm 107 W/m2
08:34 18.8 °C 14.9 °C 1016.3 hPa WSW 4.7 km/h 9.7 km/h 78% 0.0 mm 105 W/m2
08:39 18.7 °C 14.6 °C 1016.3 hPa West 4.7 km/h 11.3 km/h 77% 0.0 mm 100 W/m2
08:44 18.7 °C 14.6 °C 1016.3 hPa West 13 km/h 12.9 km/h 77% 0.0 mm 95 W/m2
08:49 18.7 °C 14.4 °C 1016.3 hPa SW 4.7 km/h 12.9 km/h 76% 0.0 mm 83 W/m2
08:54 18.6 °C 14.3 °C 1016.3 hPa WNW 6.4 km/h 20.9 km/h 76% 0.0 mm 77 W/m2
08:59 18.6 °C 14.3 °C 1016.3 hPa West 4.7 km/h 11.3 km/h 76% 0.0 mm 104 W/m2
09:04 18.6 °C 14.3 °C 1016.3 hPa West 11.1 km/h 12.9 km/h 76% 0.0 mm 118 W/m2
09:09 18.6 °C 14.3 °C 1016.3 hPa WNW 3.2 km/h 11.3 km/h 76% 0.0 mm 244 W/m2
09:14 18.7 °C 14.2 °C 1016.6 hPa WSW 6.4 km/h 17.7 km/h 75% 0.0 mm 315 W/m2
09:19 18.9 °C 14.2 °C 1016.6 hPa West 11.1 km/h 22.5 km/h 74% 0.0 mm 306 W/m2
09:24 19.1 °C 14.4 °C 1016.3 hPa NNW 6.4 km/h 16.1 km/h 74% 0.0 mm 227 W/m2
09:29 19.3 °C 14.3 °C 1016.6 hPa West 4.7 km/h 19.3 km/h 73% 0.0 mm 53 W/m2
09:34 19.3 °C 14.3 °C 1016.6 hPa West 9.7 km/h 16.1 km/h 73% 0.0 mm 218 W/m2
09:39 19.4 °C 14.2 °C 1016.6 hPa WNW 6.4 km/h 17.7 km/h 72% 0.0 mm 403 W/m2
09:44 19.7 °C 14.5 °C 1016.6 hPa WNW 6.4 km/h 9.7 km/h 72% 0.0 mm 415 W/m2
09:49 19.8 °C 14.4 °C 1016.6 hPa NW 3.2 km/h 19.3 km/h 71% 0.0 mm 425 W/m2
09:54 20.1 °C 14.9 °C 1016.6 hPa NW 3.2 km/h 6.4 km/h 72% 0.0 mm 443 W/m2
09:59 20.2 °C 14.6 °C 1016.6 hPa WNW 6.4 km/h 19.3 km/h 70% 0.0 mm 455 W/m2
10:04 20.3 °C 14.6 °C 1016.6 hPa WNW 7.9 km/h 16.1 km/h 70% 0.0 mm 466 W/m2
10:09 20.4 °C 14.7 °C 1016.6 hPa WSW 6.4 km/h 11.3 km/h 70% 0.0 mm 480 W/m2
10:14 20.6 °C 14.7 °C 1016.6 hPa WSW 7.9 km/h 16.1 km/h 69% 0.0 mm 494 W/m2
10:19 20.6 °C 14.7 °C 1016.6 hPa NW 7.9 km/h 20.9 km/h 69% 0.0 mm 503 W/m2
10:24 20.7 °C 14.8 °C 1016.6 hPa WNW 11.1 km/h 19.3 km/h 69% 0.0 mm 522 W/m2
10:29 20.8 °C 14.9 °C 1016.6 hPa WSW 4.7 km/h 16.1 km/h 69% 0.0 mm 534 W/m2
10:34 21 °C 14.9 °C 1016.6 hPa WSW 14.3 km/h 17.7 km/h 68% 0.0 mm 538 W/m2
10:39 21.1 °C 14.5 °C 1016.6 hPa WNW 16.3 km/h 24.1 km/h 66% 0.0 mm 564 W/m2
10:44 21.1 °C 14.3 °C 1016.6 hPa NW 17.7 km/h 17.7 km/h 65% 0.0 mm 566 W/m2
10:49 21.3 °C 14.2 °C 1016.6 hPa WSW 19.5 km/h 22.5 km/h 64% 0.0 mm 573 W/m2
10:54 21.3 °C 14 °C 1016.6 hPa WNW 11.1 km/h 20.9 km/h 63% 0.0 mm 591 W/m2
10:59 21.4 °C 14.5 °C 1016.9 hPa West 20.9 km/h 20.9 km/h 65% 0.0 mm 599 W/m2
11:04 21.4 °C 14.5 °C 1016.6 hPa NNW 6.4 km/h 14.5 km/h 65% 0.0 mm 635 W/m2
11:09 21.7 °C 14.6 °C 1016.6 hPa WNW 9.7 km/h 19.3 km/h 64% 0.0 mm 668 W/m2
11:14 21.8 °C 14.4 °C 1016.6 hPa NW 3.2 km/h 11.3 km/h 63% 0.0 mm 656 W/m2
11:19 22.1 °C 14.2 °C 1016.9 hPa NW 6.4 km/h 16.1 km/h 61% 0.0 mm 670 W/m2
11:24 22 °C 14.4 °C 1016.9 hPa WNW 13 km/h 19.3 km/h 62% 0.0 mm 708 W/m2
11:29 21.9 °C 14 °C 1016.9 hPa WNW 6.4 km/h 12.9 km/h 61% 0.0 mm 708 W/m2
11:34 21.9 °C 13.8 °C 1016.9 hPa SW 13 km/h 24.1 km/h 60% 0.0 mm 735 W/m2
11:39 22.1 °C 13.7 °C 1016.9 hPa West 9.7 km/h 19.3 km/h 59% 0.0 mm 726 W/m2
11:44 22.4 °C 14.3 °C 1016.6 hPa WNW 11.1 km/h 22.5 km/h 60% 0.0 mm 738 W/m2
11:49 22.6 °C 14.2 °C 1016.6 hPa NW 4.7 km/h 11.3 km/h 59% 0.0 mm 714 W/m2
11:54 22.7 °C 13.7 °C 1016.9 hPa NNW 17.7 km/h 22.5 km/h 57% 0.0 mm 744 W/m2
11:59 22.7 °C 14 °C 1016.9 hPa NW 7.9 km/h 24.1 km/h 58% 0.0 mm 756 W/m2
12:04 23 °C 14 °C 1016.9 hPa NW 3.2 km/h 12.9 km/h 57% 0.0 mm 754 W/m2
12:09 23.2 °C 13.9 °C 1016.9 hPa SW 11.1 km/h 24.1 km/h 56% 0.0 mm 812 W/m2
12:14 23.1 °C 14.1 °C 1016.9 hPa NW 7.9 km/h 20.9 km/h 57% 0.0 mm 828 W/m2
12:19 23 °C 14 °C 1016.9 hPa WNW 4.7 km/h 20.9 km/h 57% 0.0 mm 810 W/m2
12:24 23 °C 14 °C 1016.9 hPa WSW 24.1 km/h 24.1 km/h 57% 0.0 mm 844 W/m2
12:30 23.3 °C 14 °C 1016.6 hPa NW 9.7 km/h 19.3 km/h 56% 0.0 mm 860 W/m2
12:35 23.2 °C 14.2 °C 1016.6 hPa SSW 13 km/h 20.9 km/h 57% 0.0 mm 162 W/m2
12:40 23.3 °C 14 °C 1016.9 hPa WSW 6.4 km/h 16.1 km/h 56% 0.0 mm 819 W/m2
12:45 23.4 °C 13.8 °C 1016.9 hPa NW 4.7 km/h 19.3 km/h 55% 0.0 mm 211 W/m2
12:50 23.3 °C 14 °C 1016.9 hPa WNW 14.3 km/h 14.5 km/h 56% 0.0 mm 889 W/m2
12:55 23.5 °C 14.5 °C 1016.9 hPa West 9.7 km/h 17.7 km/h 57% 0.0 mm 919 W/m2
13:00 23.5 °C 14.2 °C 1016.9 hPa WNW 14.3 km/h 19.3 km/h 56% 0.0 mm 926 W/m2
13:05 23.3 °C 14 °C 1016.9 hPa West 4.7 km/h 24.1 km/h 56% 0.0 mm 232 W/m2
13:10 23.7 °C 14.4 °C 1016.9 hPa WNW 3.2 km/h 6.4 km/h 56% 0.0 mm 940 W/m2
13:15 23.7 °C 13.8 °C 1016.9 hPa NNW 6.4 km/h 22.5 km/h 54% 0.0 mm 846 W/m2
13:20 23.7 °C 14.1 °C 1016.9 hPa WSW 6.4 km/h 12.9 km/h 55% 0.0 mm 849 W/m2
13:25 23.9 °C 14.3 °C 1016.9 hPa WNW 16.3 km/h 22.5 km/h 55% 0.0 mm 904 W/m2
13:30 23.8 °C 13.9 °C 1016.9 hPa West 17.7 km/h 19.3 km/h 54% 0.0 mm 881 W/m2
13:35 23.3 °C 13.5 °C 1016.9 hPa WSW 6.4 km/h 29 km/h 54% 0.0 mm 174 W/m2
13:40 23.2 °C 13.9 °C 1016.9 hPa NW 6.4 km/h 12.9 km/h 56% 0.0 mm 174 W/m2
13:45 23.3 °C 13.8 °C 1016.9 hPa North 6.4 km/h 29 km/h 55% 0.0 mm 160 W/m2
13:50 23.6 °C 13.7 °C 1016.9 hPa West 9.7 km/h 12.9 km/h 54% 0.0 mm 244 W/m2
13:55 23.4 °C 13.6 °C 1016.9 hPa WSW 6.4 km/h 14.5 km/h 54% 0.0 mm 244 W/m2
14:00 23.6 °C 13.7 °C 1016.9 hPa WNW 14.3 km/h 14.5 km/h 54% 0.0 mm 404 W/m2
14:05 23.7 °C 13.8 °C 1016.9 hPa West 9.7 km/h 12.9 km/h 54% 0.0 mm 988 W/m2
14:10 23.9 °C 14 °C 1016.9 hPa WNW 6.4 km/h 11.3 km/h 54% 0.0 mm 378 W/m2
14:15 23.9 °C 13.7 °C 1016.9 hPa WNW 7.9 km/h 14.5 km/h 53% 0.0 mm 348 W/m2
14:20 23.9 °C 13.7 °C 1016.9 hPa SW 14.3 km/h 22.5 km/h 53% 0.0 mm 357 W/m2
14:26 23.8 °C 13.9 °C 1016.9 hPa WNW 4.7 km/h 14.5 km/h 54% 0.0 mm 330 W/m2
14:31 23.8 °C 13.9 °C 1016.9 hPa NW 11.1 km/h 12.9 km/h 54% 0.0 mm 849 W/m2
14:36 24.1 °C 13.9 °C 1016.9 hPa NNW 13 km/h 24.1 km/h 53% 0.0 mm 802 W/m2
14:41 23.8 °C 13.9 °C 1016.9 hPa West 17.7 km/h 17.7 km/h 54% 0.0 mm 214 W/m2
14:46 23.7 °C 13.8 °C 1016.9 hPa WSW 7.9 km/h 16.1 km/h 54% 0.0 mm 251 W/m2
14:51 23.4 °C 13.3 °C 1016.9 hPa West 9.7 km/h 19.3 km/h 53% 0.0 mm 214 W/m2
14:56 23.3 °C 13.5 °C 1016.9 hPa West 11.1 km/h 24.1 km/h 54% 0.0 mm 132 W/m2
15:01 23.2 °C 13.7 °C 1016.9 hPa West 6.4 km/h 17.7 km/h 55% 0.0 mm 236 W/m2
15:06 23.6 °C 14 °C 1016.9 hPa West 9.7 km/h 12.9 km/h 55% 0.0 mm 856 W/m2
15:11 24 °C 14.4 °C 1016.9 hPa WSW 7.9 km/h 16.1 km/h 55% 0.0 mm 142 W/m2
15:16 24.2 °C 13.7 °C 1016.9 hPa West 16.3 km/h 17.7 km/h 52% 0.0 mm 798 W/m2
15:21 24.4 °C 13.6 °C 1016.9 hPa West 13 km/h 17.7 km/h 51% 0.0 mm 677 W/m2
15:26 24.5 °C 13.4 °C 1016.6 hPa SW 19.5 km/h 29 km/h 50% 0.0 mm 701 W/m2
15:31 24.5 °C 13.4 °C 1016.6 hPa Calm   12.9 km/h 50% 0.0 mm 640 W/m2
15:36 24.4 °C 13.3 °C 1016.6 hPa West 11.1 km/h 29 km/h 50% 0.0 mm 165 W/m2
15:41 24 °C 13.2 °C 1016.6 hPa NW 4.7 km/h 14.5 km/h 51% 0.0 mm 181 W/m2
15:46 23.8 °C 13.4 °C 1016.6 hPa WSW 6.4 km/h 19.3 km/h 52% 0.0 mm 308 W/m2
15:51 24.1 °C 13.3 °C 1016.6 hPa NNW 7.9 km/h 12.9 km/h 51% 0.0 mm 179 W/m2
15:56 24.1 °C 13.3 °C 1016.6 hPa WNW 7.9 km/h 12.9 km/h 51% 0.0 mm 206 W/m2
16:01 23.9 °C 13.1 °C 1016.6 hPa NNW 9.7 km/h 11.3 km/h 51% 0.0 mm 123 W/m2
16:06 23.8 °C 13.4 °C 1016.6 hPa WSW 7.9 km/h 8 km/h 52% 0.0 mm 135 W/m2
16:11 23.9 °C 13.1 °C 1016.6 hPa WSW 6.4 km/h 6.4 km/h 51% 0.0 mm 190 W/m2
16:16 24.1 °C 13.3 °C 1016.6 hPa West 11.1 km/h 12.9 km/h 51% 0.0 mm 223 W/m2
16:21 24.2 °C 12.8 °C 1016.6 hPa WSW 16.3 km/h 16.1 km/h 49% 0.0 mm 181 W/m2
16:26 24.1 °C 12.7 °C 1016.6 hPa SW 3.2 km/h 9.7 km/h 49% 0.0 mm 105 W/m2
16:31 24 °C 12.6 °C 1016.3 hPa West 4.7 km/h 11.3 km/h 49% 0.0 mm 192 W/m2
16:36 24.2 °C 12.8 °C 1016.3 hPa West 17.7 km/h 24.1 km/h 49% 0.0 mm 290 W/m2
16:41 24.1 °C 12.7 °C 1016.3 hPa WNW 9.7 km/h 20.9 km/h 49% 0.0 mm 213 W/m2
16:46 24.2 °C 12.8 °C 1016.3 hPa West 11.1 km/h 24.1 km/h 49% 0.0 mm 195 W/m2
16:51 24.1 °C 12.7 °C 1016.3 hPa West 11.1 km/h 19.3 km/h 49% 0.0 mm 206 W/m2
16:56 24.1 °C 12.7 °C 1016.3 hPa West 11.1 km/h 20.9 km/h 49% 0.0 mm 264 W/m2
17:01 24.2 °C 12.8 °C 1016.3 hPa WSW 4.7 km/h 12.9 km/h 49% 0.0 mm 290 W/m2
17:06 24.3 °C 12.9 °C 1016.3 hPa WSW 4.7 km/h 17.7 km/h 49% 0.0 mm 274 W/m2
17:11 24.4 °C 12.7 °C 1016.3 hPa WSW 13 km/h 16.1 km/h 48% 0.0 mm 260 W/m2
17:16 24.4 °C 12.7 °C 1016.3 hPa NW 16.3 km/h 20.9 km/h 48% 0.0 mm 278 W/m2
17:21 24.4 °C 13 °C 1016.3 hPa NW 3.2 km/h 6.4 km/h 49% 0.0 mm 366 W/m2
17:26 24.6 °C 13.2 °C 1016.3 hPa West 3.2 km/h 9.7 km/h 49% 0.0 mm 246 W/m2
17:31 24.6 °C 12.9 °C 1016.3 hPa NW 9.7 km/h 16.1 km/h 48% 0.0 mm 239 W/m2
17:37 24.4 °C 12.7 °C 1016.3 hPa West 9.7 km/h 11.3 km/h 48% 0.0 mm 274 W/m2
17:42 24.5 °C 12.8 °C 1016.3 hPa WSW 19.5 km/h 20.9 km/h 48% 0.0 mm 287 W/m2
17:47 24.5 °C 12.8 °C 1016.3 hPa SE 1.4 km/h 12.9 km/h 48% 0.0 mm 290 W/m2
17:52 24.6 °C 12.5 °C 1016.3 hPa NW 4.7 km/h 20.9 km/h 47% 0.0 mm 260 W/m2
17:57 24.5 °C 12.4 °C 1016.3 hPa SSW 7.9 km/h 12.9 km/h 47% 0.0 mm 260 W/m2
18:02 24.6 °C 12.5 °C 1016.3 hPa WSW 11.1 km/h 17.7 km/h 47% 0.0 mm 213 W/m2
18:07 24.6 °C 12.2 °C 1016.3 hPa WNW 6.4 km/h 11.3 km/h 46% 0.0 mm 171 W/m2
18:12 24.6 °C 12.2 °C 1015.9 hPa WNW 4.7 km/h 16.1 km/h 46% 0.0 mm 227 W/m2
18:17 24.6 °C 12.2 °C 1015.9 hPa West 9.7 km/h 11.3 km/h 46% 0.0 mm 251 W/m2
18:22 24.6 °C 11.9 °C 1016.3 hPa SW 9.7 km/h 12.9 km/h 45% 0.0 mm 178 W/m2
18:27 24.6 °C 12.2 °C 1015.9 hPa SW 1.4 km/h 12.9 km/h 46% 0.0 mm 153 W/m2
18:32 24.5 °C 12.1 °C 1015.9 hPa West 4.7 km/h 9.7 km/h 46% 0.0 mm 155 W/m2
18:37 24.4 °C 12 °C 1015.9 hPa WSW 7.9 km/h 14.5 km/h 46% 0.0 mm 156 W/m2
18:42 24.4 °C 11.7 °C 1015.9 hPa NW 17.7 km/h 20.9 km/h 45% 0.0 mm 206 W/m2
18:47 24.6 °C 11.9 °C 1015.9 hPa NNW 6.4 km/h 9.7 km/h 45% 0.0 mm 207 W/m2
18:52 24.7 °C 12 °C 1015.9 hPa West 11.1 km/h 17.7 km/h 45% 0.0 mm 206 W/m2
18:57 24.7 °C 12 °C 1015.9 hPa West 9.7 km/h 16.1 km/h 45% 0.0 mm 248 W/m2
19:02 24.4 °C 11.7 °C 1015.9 hPa NW 9.7 km/h 14.5 km/h 45% 0.0 mm 81 W/m2
19:07 24.2 °C 11.8 °C 1015.9 hPa WNW 4.7 km/h 11.3 km/h 46% 0.0 mm 77 W/m2
19:12 24.1 °C 11.8 °C 1015.9 hPa SW 3.2 km/h 16.1 km/h 46% 0.0 mm 137 W/m2
19:17 24 °C 12 °C 1015.9 hPa WNW 4.7 km/h 11.3 km/h 47% 0.0 mm 123 W/m2
19:22 24.1 °C 12.1 °C 1015.9 hPa NW 4.7 km/h 11.3 km/h 47% 0.0 mm 197 W/m2
19:27 24.1 °C 12.1 °C 1015.9 hPa NW 6.4 km/h 12.9 km/h 47% 0.0 mm 162 W/m2
19:32 24.1 °C 12.4 °C 1015.9 hPa WSW 1.4 km/h 9.7 km/h 48% 0.0 mm 91 W/m2
19:37 24 °C 12 °C 1015.9 hPa WNW 4.7 km/h 9.7 km/h 47% 0.0 mm 44 W/m2
19:42 23.9 °C 12.2 °C 1015.9 hPa WNW 4.7 km/h 14.5 km/h 48% 0.0 mm 37 W/m2
19:47 23.8 °C 12.1 °C 1015.9 hPa SW 3.2 km/h 14.5 km/h 48% 0.0 mm 35 W/m2
19:52 23.6 °C 12.3 °C 1015.9 hPa West 3.2 km/h 3.2 km/h 49% 0.0 mm 30 W/m2
19:57 23.4 °C 12.1 °C 1015.9 hPa West 1.4 km/h 6.4 km/h 49% 0.0 mm 28 W/m2
20:02 23.3 °C 12.3 °C 1015.9 hPa WNW 3.2 km/h 4.8 km/h 50% 0.0 mm 26 W/m2
20:07 23.2 °C 12.2 °C 1015.9 hPa WNW 3.2 km/h 6.4 km/h 50% 0.0 mm 18 W/m2
20:12 23.1 °C 12.1 °C 1015.9 hPa WSW 9.7 km/h 17.7 km/h 50% 0.0 mm 14 W/m2
20:18 23.1 °C 12.1 °C 1015.9 hPa WNW 6.4 km/h 11.3 km/h 50% 0.0 mm 12 W/m2
20:23 23.1 °C 12.1 °C 1015.9 hPa WNW 3.2 km/h 6.4 km/h 50% 0.0 mm 11 W/m2
20:28 23.1 °C 12.1 °C 1016.3 hPa West 13 km/h 16.1 km/h 50% 0.0 mm 9 W/m2
20:33 23.1 °C 12.4 °C 1016.3 hPa SW 3.2 km/h 4.8 km/h 51% 0.0 mm 5 W/m2
20:38 22.9 °C 12.2 °C 1016.3 hPa SSW 1.4 km/h 16.1 km/h 51% 0.0 mm 0 W/m2
20:43 22.8 °C 12.1 °C 1016.3 hPa West 4.7 km/h 6.4 km/h 51% 0.0 mm 0 W/m2
20:48 22.8 °C 12.1 °C 1016.3 hPa WNW 3.2 km/h 12.9 km/h 51% 0.0 mm 0 W/m2
20:53 22.7 °C 12 °C 1016.3 hPa WSW 1.4 km/h 14.5 km/h 51% 0.0 mm 0 W/m2
20:58 22.6 °C 12.2 °C 1016.3 hPa NW 4.7 km/h 9.7 km/h 52% 0.0 mm 0 W/m2
21:03 22.6 °C 12.2 °C 1016.3 hPa WSW 4.7 km/h 8 km/h 52% 0.0 mm 0 W/m2
21:08 22.4 °C 12.1 °C 1016.3 hPa West 4.7 km/h 4.8 km/h 52% 0.0 mm 0 W/m2
21:13 22.3 °C 12.3 °C 1016.3 hPa Calm   3.2 km/h 53% 0.0 mm 0 W/m2
21:18 22.2 °C 12.4 °C 1016.3 hPa West 1.4 km/h 3.2 km/h 54% 0.0 mm 0 W/m2
21:23 21.9 °C 12.7 °C 1016.3 hPa Calm   1.6 km/h 56% 0.0 mm 0 W/m2
21:28 21.7 °C 12.8 °C 1016.6 hPa West 3.2 km/h 3.2 km/h 57% 0.0 mm 0 W/m2
21:33 21.3 °C 13 °C 1016.3 hPa Calm     59% 0.0 mm 0 W/m2
21:38 21.1 °C 13 °C 1016.6 hPa Calm   3.2 km/h 60% 0.0 mm 0 W/m2
21:43 20.8 °C 12.7 °C 1016.3 hPa West 1.4 km/h 1.6 km/h 60% 0.0 mm 0 W/m2
21:48 20.6 °C 13.1 °C 1016.6 hPa Calm   3.2 km/h 62% 0.0 mm 0 W/m2
21:53 20.3 °C 12.8 °C 1016.6 hPa Calm   1.6 km/h 62% 0.0 mm 0 W/m2
21:59 20.1 °C 12.8 °C 1016.6 hPa Calm   1.6 km/h 63% 0.0 mm 0 W/m2
22:04 19.9 °C 13.1 °C 1016.3 hPa West 1.4 km/h 1.6 km/h 65% 0.0 mm 0 W/m2
22:09 19.8 °C 13 °C 1016.3 hPa Calm     65% 0.0 mm 0 W/m2
22:14 19.6 °C 12.8 °C 1016.3 hPa Calm     65% 0.0 mm 0 W/m2
22:19 19.4 °C 12.9 °C 1016.3 hPa Calm   3.2 km/h 66% 0.0 mm 0 W/m2
22:24 19.3 °C 12.8 °C 1016.3 hPa Calm   3.2 km/h 66% 0.0 mm 0 W/m2
22:29 19.3 °C 12.8 °C 1016.3 hPa West 1.4 km/h 1.6 km/h 66% 0.0 mm 0 W/m2
22:34 19.3 °C 12.8 °C 1016.3 hPa Calm     66% 0.0 mm 0 W/m2
22:39 19.6 °C 12.4 °C 1016.3 hPa SSW 3.2 km/h 8 km/h 63% 0.0 mm 0 W/m2
22:44 20.2 °C 12.7 °C 1016.6 hPa NW 6.4 km/h 12.9 km/h 62% 0.0 mm 0 W/m2
22:49 20.5 °C 12.5 °C 1016.6 hPa WNW 4.7 km/h 9.7 km/h 60% 0.0 mm 0 W/m2
22:54 20.6 °C 12.6 °C 1016.6 hPa NNW 3.2 km/h 12.9 km/h 60% 0.0 mm 0 W/m2
22:59 20.7 °C 12.9 °C 1016.6 hPa Calm   1.6 km/h 61% 0.0 mm 0 W/m2
23:04 20.6 °C 12.8 °C 1016.3 hPa North 1.4 km/h 1.6 km/h 61% 0.0 mm 0 W/m2
23:09 20.3 °C 12.8 °C 1016.6 hPa Calm     62% 0.0 mm 0 W/m2
23:14 20.2 °C 12.9 °C 1016.6 hPa Calm     63% 0.0 mm 0 W/m2
23:19 19.9 °C 12.6 °C 1016.3 hPa Calm   1.6 km/h 63% 0.0 mm 0 W/m2
23:24 19.8 °C 12.6 °C 1016.3 hPa Calm     63% 0.0 mm 0 W/m2
23:29 19.8 °C 12.6 °C 1016.6 hPa Calm   1.6 km/h 63% 0.0 mm 0 W/m2
23:34 19.9 °C 12.4 °C 1016.3 hPa Calm   1.6 km/h 62% 0.0 mm 0 W/m2
23:39 19.9 °C 12.6 °C 1016.3 hPa Calm   1.6 km/h 63% 0.0 mm 0 W/m2
23:44 19.9 °C 12.6 °C 1016.6 hPa West 1.4 km/h 4.8 km/h 63% 0.0 mm 0 W/m2
23:49 19.9 °C 12.4 °C 1016.6 hPa Calm   1.6 km/h 62% 0.0 mm 0 W/m2
23:54 19.9 °C 12.9 °C 1016.6 hPa Calm     64% 0.0 mm 0 W/m2
23:59 19.8 °C 12.6 °C 1016.6 hPa WNW 1.4 km/h 3.2 km/h 63% 0.0 mm 0 W/m2
Juneau County Weather
Compliments of Weather Underground - 4 mb